Time;durP1;ratioP1;P1;durP2;ratioP2;P2;SDS_P1;SDS_P2;PMS_P1;PMS_P2;Temp;Humidity;BMP_temperature;BMP_pressure;BME280_temperature;BME280_humidity;BME280_pressure;Samples;Min_cycle;Max_cycle;Signal;HPM_P1;HPM_P2
2021/01/31 00:00:33;;;;;;;3.97;2.03;;;14.30;37.20;;;;;;5053330;28;20057;-64
2021/01/31 00:03:03;;;;;;;4.30;2.08;;;14.30;37.30;;;;;;5052896;28;20033;-65
2021/01/31 00:05:29;;;;;;;5.18;1.92;;;14.20;37.40;;;;;;5053475;28;20025;-64
2021/01/31 00:07:55;;;;;;;4.15;2.00;;;14.20;37.30;;;;;;5053663;28;20040;-64
2021/01/31 00:10:27;;;;;;;3.85;2.13;;;14.20;37.20;;;;;;5054232;28;20025;-64
2021/01/31 00:12:53;;;;;;;4.47;2.00;;;14.30;37.30;;;;;;5054470;28;20384;-65
2021/01/31 00:15:21;;;;;;;3.55;1.67;;;14.20;37.20;;;;;;5061036;28;20045;-65
2021/01/31 00:17:47;;;;;;;3.85;1.90;;;14.30;37.30;;;;;;5061834;28;20032;-66
2021/01/31 00:20:15;;;;;;;5.70;2.20;;;14.20;37.10;;;;;;5060978;28;20041;-68
2021/01/31 00:22:41;;;;;;;3.35;1.80;;;14.30;37.20;;;;;;5060997;28;20063;-65
2021/01/31 00:25:08;;;;;;;3.88;1.90;;;14.20;37.20;;;;;;5060692;28;20025;-65
2021/01/31 00:27:33;;;;;;;3.97;1.90;;;14.20;37.10;;;;;;5060729;28;20059;-65
2021/01/31 00:29:59;;;;;;;3.40;1.75;;;14.20;37.20;;;;;;5066223;28;20052;-66
2021/01/31 00:32:27;;;;;;;3.45;1.92;;;14.20;37.20;;;;;;5062281;28;20033;-65
2021/01/31 00:34:54;;;;;;;5.38;1.92;;;14.30;37.20;;;;;;5063210;28;20026;-64
2021/01/31 00:37:20;;;;;;;4.75;2.08;;;14.20;37.10;;;;;;5062729;28;20044;-64
2021/01/31 00:39:50;;;;;;;3.88;2.08;;;14.20;37.40;;;;;;5062300;28;20095;-64
2021/01/31 00:42:17;;;;;;;3.88;1.90;;;14.20;37.20;;;;;;5061552;28;20035;-64
2021/01/31 00:44:50;;;;;;;4.45;1.92;;;14.20;37.10;;;;;;5054539;28;20615;-64
2021/01/31 00:47:17;;;;;;;4.47;2.25;;;14.20;37.20;;;;;;5052486;28;20021;-64
2021/01/31 00:49:43;;;;;;;3.47;1.92;;;14.20;37.20;;;;;;5053089;28;20048;-64
2021/01/31 00:52:10;;;;;;;4.57;1.98;;;14.20;37.10;;;;;;5053317;28;20025;-64
2021/01/31 00:54:36;;;;;;;4.70;2.20;;;14.20;37.30;;;;;;5053188;28;20021;-64
2021/01/31 00:57:01;;;;;;;5.13;2.35;;;14.20;37.30;;;;;;5053237;28;20500;-64
2021/01/31 00:59:27;;;;;;;4.78;2.10;;;14.20;37.30;;;;;;5053105;28;20030;-64
2021/01/31 01:01:53;;;;;;;3.45;1.80;;;14.20;37.10;;;;;;5052956;28;20029;-64
2021/01/31 01:04:18;;;;;;;3.95;1.77;;;14.20;37.00;;;;;;5053232;28;20021;-64
2021/01/31 01:06:45;;;;;;;3.90;1.98;;;14.20;37.00;;;;;;5053237;28;20032;-64
2021/01/31 01:09:14;;;;;;;4.05;2.00;;;14.20;37.10;;;;;;5052726;28;20112;-64
2021/01/31 01:11:40;;;;;;;4.88;1.80;;;14.20;37.20;;;;;;5052997;28;20048;-65
2021/01/31 01:14:06;;;;;;;3.58;1.80;;;14.20;37.10;;;;;;5056778;28;20473;-65
2021/01/31 01:16:32;;;;;;;3.83;2.08;;;14.20;37.00;;;;;;5055722;28;20032;-64
2021/01/31 01:18:57;;;;;;;4.60;2.20;;;14.20;37.30;;;;;;5055846;28;20424;-64
2021/01/31 01:21:23;;;;;;;3.85;1.77;;;14.20;37.30;;;;;;5056670;28;20029;-64
2021/01/31 01:23:49;;;;;;;4.47;2.15;;;14.20;37.20;;;;;;5056750;28;20474;-64
2021/01/31 01:26:14;;;;;;;3.22;1.77;;;14.20;37.10;;;;;;5055562;28;20451;-64
2021/01/31 01:28:40;;;;;;;3.92;2.15;;;14.10;37.20;;;;;;5056418;28;20105;-63
2021/01/31 01:31:05;;;;;;;3.50;1.95;;;14.20;36.90;;;;;;5056645;28;20469;-63
2021/01/31 01:33:31;;;;;;;5.35;2.53;;;14.20;37.10;;;;;;5056208;28;20032;-63
2021/01/31 01:35:56;;;;;;;4.28;1.90;;;14.20;37.10;;;;;;5056414;28;20044;-63
2021/01/31 01:38:22;;;;;;;4.03;2.05;;;14.20;37.20;;;;;;5056646;28;20032;-64
2021/01/31 01:40:47;;;;;;;3.03;1.75;;;14.20;37.20;;;;;;5056488;28;20037;-63
2021/01/31 01:43:19;;;;;;;3.75;1.88;;;14.20;37.20;;;;;;5056129;28;20033;-63
2021/01/31 01:45:55;;;;;;;3.35;1.70;;;14.20;37.30;;;;;;5056212;28;20064;-63
2021/01/31 01:48:21;;;;;;;4.78;2.30;;;14.20;37.10;;;;;;5056320;28;20111;-64
2021/01/31 01:50:50;;;;;;;3.33;1.65;;;14.20;37.30;;;;;;5055939;28;20072;-63
2021/01/31 01:53:17;;;;;;;4.03;1.95;;;14.20;37.10;;;;;;5056007;28;20053;-64
2021/01/31 01:56:11;;;;;;;4.50;2.08;;;14.20;37.20;;;;;;5054626;28;20037;-64
2021/01/31 01:58:37;;;;;;;4.00;1.80;;;14.20;36.90;;;;;;5056059;28;20063;-63
2021/01/31 02:01:03;;;;;;;5.28;2.30;;;14.20;36.90;;;;;;5055648;28;20678;-65
2021/01/31 02:03:33;;;;;;;4.53;2.25;;;14.10;37.20;;;;;;5054296;28;20033;-64
2021/01/31 02:06:03;;;;;;;4.10;1.92;;;14.20;37.10;;;;;;5055566;28;20040;-63
2021/01/31 02:08:28;;;;;;;4.15;2.10;;;14.10;37.10;;;;;;5055930;28;20052;-64
2021/01/31 02:10:54;;;;;;;4.25;2.13;;;14.20;37.20;;;;;;5055500;28;20072;-63
2021/01/31 02:13:20;;;;;;;4.78;2.30;;;14.10;37.10;;;;;;5055416;28;20472;-63
2021/01/31 02:15:46;;;;;;;5.00;2.10;;;14.10;37.10;;;;;;5055157;28;20071;-63
2021/01/31 02:18:53;;;;;;;4.28;2.20;;;14.10;37.10;;;;;;5055333;28;20531;-63
2021/01/31 02:21:54;;;;;;;3.95;1.88;;;14.10;37.10;;;;;;5054259;28;20048;-63
2021/01/31 02:24:35;;;;;;;4.05;1.80;;;14.20;36.90;;;;;;5055384;28;20170;-63
2021/01/31 02:27:11;;;;;;;4.28;2.00;;;14.10;37.10;;;;;;5054922;28;20033;-63
2021/01/31 02:30:02;;;;;;;4.22;2.08;;;14.10;37.10;;;;;;5055191;28;20025;-63
2021/01/31 02:32:52;;;;;;;4.95;2.40;;;14.10;37.00;;;;;;5055193;28;20043;-63
2021/01/31 02:35:22;;;;;;;4.72;2.20;;;14.10;37.10;;;;;;5054914;28;20056;-63
2021/01/31 02:37:57;;;;;;;4.03;2.17;;;14.10;37.20;;;;;;5054897;28;20029;-63
2021/01/31 02:40:29;;;;;;;4.65;2.05;;;14.10;37.00;;;;;;5054869;28;20025;-63
2021/01/31 02:43:13;;;;;;;4.25;2.10;;;14.10;37.10;;;;;;5054841;28;20043;-63
2021/01/31 02:45:55;;;;;;;3.65;1.80;;;14.10;37.20;;;;;;5054812;28;20033;-63
2021/01/31 02:48:47;;;;;;;3.22;1.63;;;14.10;36.90;;;;;;5055303;28;20017;-63
2021/01/31 02:51:19;;;;;;;4.05;1.92;;;14.10;36.90;;;;;;5055285;28;20088;-63
2021/01/31 02:53:59;;;;;;;4.32;1.90;;;14.10;37.00;;;;;;5054829;28;20029;-63
2021/01/31 02:56:51;;;;;;;4.72;2.30;;;14.10;37.10;;;;;;5054750;28;20116;-63
2021/01/31 02:59:46;;;;;;;4.70;2.17;;;14.10;36.80;;;;;;5054350;28;20044;-62
2021/01/31 03:02:20;;;;;;;4.90;2.08;;;14.10;36.70;;;;;;5053384;28;20047;-63
2021/01/31 03:04:53;;;;;;;5.03;2.13;;;14.10;37.00;;;;;;5054608;28;20469;-63
2021/01/31 03:07:29;;;;;;;4.25;1.92;;;14.10;36.80;;;;;;5055040;28;20071;-63
2021/01/31 03:10:07;;;;;;;5.43;2.33;;;14.10;36.80;;;;;;5053282;28;20052;-63
2021/01/31 03:12:57;;;;;;;5.40;2.10;;;14.10;36.70;;;;;;5054411;28;20021;-63
2021/01/31 03:15:26;;;;;;;5.50;2.15;;;14.10;36.90;;;;;;5054027;28;20045;-63
2021/01/31 03:18:17;;;;;;;5.20;2.50;;;14.10;36.90;;;;;;5054256;28;20052;-63
2021/01/31 03:20:52;;;;;;;5.05;1.70;;;14.10;36.70;;;;;;5053706;28;20436;-63
2021/01/31 03:23:21;;;;;;;;;;;14.10;36.80;;;;;;5054677;28;20028;-64
2021/01/31 03:25:55;;;;;;;5.20;2.40;;;14.10;36.70;;;;;;5057387;28;19905;-63
2021/01/31 03:28:20;;;;;;;4.75;1.95;;;14.10;36.70;;;;;;5055097;28;20025;-63
2021/01/31 03:30:47;;;;;;;4.40;1.90;;;14.10;36.70;;;;;;5054307;28;20028;-64
2021/01/31 03:33:22;;;;;;;4.80;2.15;;;14.10;36.70;;;;;;5054308;28;20029;-63
2021/01/31 03:35:50;;;;;;;3.70;2.08;;;14.10;36.80;;;;;;5054492;28;20029;-63
2021/01/31 03:38:38;;;;;;;3.97;1.98;;;14.10;36.90;;;;;;5053041;28;20151;-63
2021/01/31 03:41:10;;;;;;;4.05;1.67;;;14.10;36.80;;;;;;5054306;28;20036;-63
2021/01/31 03:43:37;;;;;;;3.80;1.88;;;14.10;36.80;;;;;;5054064;28;20476;-63
2021/01/31 03:46:10;;;;;;;4.07;2.08;;;14.10;36.90;;;;;;5054000;28;20545;-63
2021/01/31 03:48:43;;;;;;;3.70;1.97;;;14.10;37.00;;;;;;5054122;28;20029;-63
2021/01/31 03:51:10;;;;;;;3.92;1.90;;;14.10;36.70;;;;;;5052537;28;20039;-63
2021/01/31 03:53:35;;;;;;;4.28;2.00;;;14.10;36.70;;;;;;5053947;28;20036;-63
2021/01/31 03:56:02;;;;;;;4.38;2.00;;;14.00;36.90;;;;;;5053553;28;20400;-63
2021/01/31 03:58:28;;;;;;;4.97;2.25;;;14.00;36.70;;;;;;5053585;28;20110;-63
2021/01/31 04:00:57;;;;;;;4.30;2.17;;;14.00;36.70;;;;;;5053782;28;20504;-63
2021/01/31 04:03:34;;;;;;;4.28;2.45;;;14.10;36.70;;;;;;5053972;28;20029;-64
2021/01/31 04:06:11;;;;;;;5.50;2.08;;;14.10;36.60;;;;;;5054044;28;20162;-63
2021/01/31 04:08:39;;;;;;;5.20;2.10;;;14.00;36.90;;;;;;5054286;28;20032;-63
2021/01/31 04:11:05;;;;;;;6.25;2.30;;;14.10;36.70;;;;;;5053614;28;20031;-63
2021/01/31 04:13:33;;;;;;;4.65;1.90;;;14.10;36.90;;;;;;5053779;28;20112;-63
2021/01/31 04:16:01;;;;;;;4.38;1.95;;;14.10;36.70;;;;;;5053294;28;20045;-63
2021/01/31 04:18:27;;;;;;;5.22;2.60;;;14.00;36.60;;;;;;5053259;28;20017;-63
2021/01/31 04:20:53;;;;;;;4.18;2.35;;;14.10;36.70;;;;;;5053151;28;20031;-63
2021/01/31 04:23:20;;;;;;;3.80;2.03;;;14.10;36.80;;;;;;5051651;28;20017;-63
2021/01/31 04:25:46;;;;;;;4.22;2.17;;;14.00;36.70;;;;;;5054287;28;20025;-64
2021/01/31 04:28:18;;;;;;;4.25;2.00;;;14.00;36.70;;;;;;5053331;28;20025;-64
2021/01/31 04:30:46;;;;;;;4.60;2.13;;;14.00;36.70;;;;;;5053617;28;20075;-63
2021/01/31 04:33:14;;;;;;;4.32;2.15;;;14.10;36.50;;;;;;5053247;28;20071;-63
2021/01/31 04:35:40;;;;;;;4.45;2.35;;;14.10;36.60;;;;;;5053287;28;20108;-64
2021/01/31 04:38:06;;;;;;;3.92;1.98;;;14.00;36.70;;;;;;5054122;28;20119;-63
2021/01/31 04:40:34;;;;;;;5.28;2.30;;;14.00;36.60;;;;;;5054475;28;20028;-64
2021/01/31 04:43:01;;;;;;;4.03;2.25;;;14.00;36.60;;;;;;5054297;28;20089;-64
2021/01/31 04:45:27;;;;;;;4.88;2.53;;;14.00;36.60;;;;;;5054174;28;20033;-64
2021/01/31 04:47:52;;;;;;;6.13;2.28;;;14.00;36.60;;;;;;5053398;28;20116;-63
2021/01/31 04:50:31;;;;;;;4.18;1.83;;;14.10;36.60;;;;;;5057374;28;20029;-63
2021/01/31 04:53:31;;;;;;;4.82;1.90;;;14.10;36.80;;;;;;5057369;28;20025;-64
2021/01/31 04:56:17;;;;;;;3.97;2.10;;;14.00;36.60;;;;;;5057308;28;20051;-63
2021/01/31 04:58:50;;;;;;;4.82;2.20;;;14.00;36.50;;;;;;5057261;28;20063;-63
2021/01/31 05:01:29;;;;;;;5.40;2.53;;;14.00;36.80;;;;;;5057311;28;20028;-64
2021/01/31 05:03:54;;;;;;;4.78;2.40;;;14.00;36.70;;;;;;5056990;28;20071;-63
2021/01/31 05:06:22;;;;;;;4.40;2.08;;;14.00;36.60;;;;;;5056824;28;20073;-63
2021/01/31 05:08:48;;;;;;;4.90;2.40;;;14.00;36.60;;;;;;5057088;28;20035;-63
2021/01/31 05:11:28;;;;;;;3.53;1.80;;;14.00;36.70;;;;;;5056995;28;20495;-64
2021/01/31 05:14:11;;;;;;;4.03;1.90;;;14.00;36.60;;;;;;5056990;28;20116;-63
2021/01/31 05:16:37;;;;;;;5.72;2.10;;;14.00;36.80;;;;;;5055431;28;20393;-63
2021/01/31 05:19:06;;;;;;;3.90;1.92;;;14.00;36.70;;;;;;5056542;28;20032;-64
2021/01/31 05:21:33;;;;;;;4.13;1.95;;;14.10;36.90;;;;;;5055614;28;20021;-63
2021/01/31 05:24:01;;;;;;;4.65;2.15;;;14.10;36.80;;;;;;5056938;28;20018;-63
2021/01/31 05:26:33;;;;;;;4.32;2.20;;;14.10;36.70;;;;;;5055792;28;20026;-63
2021/01/31 05:29:02;;;;;;;4.07;2.00;;;14.10;36.80;;;;;;5055577;28;20029;-63
2021/01/31 05:31:34;;;;;;;4.60;2.00;;;14.10;36.80;;;;;;5056589;28;20029;-63
2021/01/31 05:34:01;;;;;;;4.68;2.30;;;14.10;36.60;;;;;;5057027;28;20024;-63
2021/01/31 05:36:29;;;;;;;4.20;2.00;;;14.10;36.80;;;;;;5056237;28;20028;-63
2021/01/31 05:38:55;;;;;;;5.07;1.95;;;14.20;36.80;;;;;;5056247;28;20033;-63
2021/01/31 05:41:36;;;;;;;4.57;2.20;;;14.20;36.80;;;;;;5056585;28;20025;-63
2021/01/31 05:44:04;;;;;;;3.92;1.95;;;14.10;36.70;;;;;;5056165;28;20033;-63
2021/01/31 05:46:48;;;;;;;4.18;2.15;;;14.20;36.80;;;;;;5056370;28;20041;-63
2021/01/31 05:49:39;;;;;;;5.57;1.95;;;14.20;36.70;;;;;;5056183;28;20086;-63
2021/01/31 05:52:20;;;;;;;4.63;2.08;;;14.20;36.70;;;;;;5056509;28;20033;-63
2021/01/31 05:54:48;;;;;;;4.93;2.15;;;14.20;36.60;;;;;;5055848;28;20024;-63
2021/01/31 05:57:26;;;;;;;4.07;2.10;;;14.20;36.50;;;;;;5055766;28;20033;-63
2021/01/31 05:59:53;;;;;;;4.50;2.15;;;14.20;36.40;;;;;;5054724;28;20025;-63
2021/01/31 06:02:24;;;;;;;4.72;2.17;;;14.20;36.50;;;;;;5055490;28;20025;-63
2021/01/31 06:05:13;;;;;;;5.20;2.25;;;14.20;36.40;;;;;;5055676;28;20564;-63
2021/01/31 06:07:41;;;;;;;4.13;2.05;;;14.20;36.40;;;;;;5055661;28;20496;-64
2021/01/31 06:10:18;;;;;;;4.05;2.03;;;14.20;36.50;;;;;;5055355;28;20021;-64
2021/01/31 06:12:47;;;;;;;3.70;1.73;;;14.20;36.30;;;;;;5055376;28;20480;-64
2021/01/31 06:15:22;;;;;;;5.07;2.00;;;14.20;36.40;;;;;;5055201;28;20053;-64
2021/01/31 06:17:57;;;;;;;;;;;14.20;36.40;;;;;;5055801;28;20043;-64
2021/01/31 06:20:30;;;;;;;4.28;1.95;;;14.20;36.50;;;;;;5055670;28;19904;-64
2021/01/31 06:22:57;;;;;;;3.67;1.88;;;14.20;36.50;;;;;;5055500;28;20029;-64
2021/01/31 06:25:25;;;;;;;4.72;2.15;;;14.20;36.40;;;;;;5055254;28;20017;-64
2021/01/31 06:28:10;;;;;;;3.80;1.90;;;14.20;36.40;;;;;;5055215;28;20052;-64
2021/01/31 06:31:02;;;;;;;3.80;1.90;;;14.20;36.30;;;;;;5055411;28;20473;-64
2021/01/31 06:33:28;;;;;;;4.05;2.03;;;14.20;36.30;;;;;;5055103;28;20021;-64
2021/01/31 06:36:25;;;;;;;4.90;2.40;;;14.20;36.30;;;;;;5055084;28;20094;-64
2021/01/31 06:39:10;;;;;;;4.45;2.05;;;14.20;36.10;;;;;;5053838;28;20033;-64
2021/01/31 06:41:51;;;;;;;3.65;1.90;;;14.20;36.00;;;;;;5054969;28;20413;-64
2021/01/31 06:44:54;;;;;;;4.70;2.00;;;14.20;36.20;;;;;;5056811;28;20100;-64
2021/01/31 06:47:45;;;;;;;4.50;2.10;;;14.20;36.10;;;;;;5055373;28;20033;-64
2021/01/31 06:50:48;;;;;;;4.05;1.75;;;14.20;36.20;;;;;;5055233;28;20056;-64
2021/01/31 06:53:21;;;;;;;4.72;2.13;;;14.20;36.20;;;;;;5055139;28;20543;-63
2021/01/31 06:55:57;;;;;;;4.05;1.77;;;14.20;36.10;;;;;;5055192;28;20032;-64
2021/01/31 06:58:55;;;;;;;3.83;2.08;;;14.20;36.10;;;;;;5055457;28;20029;-64
2021/01/31 07:01:41;;;;;;;4.13;2.03;;;14.20;36.20;;;;;;5053700;28;20496;-64
2021/01/31 07:04:36;;;;;;;3.50;1.63;;;14.20;36.10;;;;;;5055078;28;20032;-64
2021/01/31 07:07:28;;;;;;;3.63;2.00;;;14.20;36.00;;;;;;5055582;28;20079;-64
2021/01/31 07:10:06;;;;;;;3.40;1.90;;;14.20;36.20;;;;;;5055126;28;20029;-64
2021/01/31 07:13:04;;;;;;;3.75;1.70;;;14.20;36.10;;;;;;5056867;28;20066;-64
2021/01/31 07:15:44;;;;;;;4.15;2.17;;;14.30;36.00;;;;;;5053507;28;20056;-64
2021/01/31 07:18:14;;;;;;;3.22;1.77;;;14.20;36.20;;;;;;5054561;28;20602;-64
2021/01/31 07:20:47;;;;;;;5.78;2.08;;;14.20;36.10;;;;;;5054902;28;20029;-64
2021/01/31 07:23:18;;;;;;;4.90;2.00;;;14.30;36.20;;;;;;5054473;28;20017;-64
2021/01/31 07:25:57;;;;;;;3.28;1.58;;;14.20;36.00;;;;;;5054401;28;20029;-64
2021/01/31 07:28:34;;;;;;;3.25;1.73;;;14.30;36.10;;;;;;5054378;28;20021;-64
2021/01/31 07:31:17;;;;;;;3.83;1.75;;;14.30;36.10;;;;;;5054165;28;20020;-64
2021/01/31 07:34:26;;;;;;;4.55;2.10;;;14.30;36.00;;;;;;5054097;28;20025;-64
2021/01/31 07:37:14;;;;;;;4.18;2.08;;;14.30;36.10;;;;;;5054312;28;20250;-64
2021/01/31 07:39:46;;;;;;;3.55;1.80;;;14.30;36.10;;;;;;5053894;28;20607;-64
2021/01/31 07:42:14;;;;;;;4.93;2.38;;;14.30;36.10;;;;;;5054341;28;20029;-64
2021/01/31 07:44:41;;;;;;;3.35;2.00;;;14.30;36.00;;;;;;5054093;28;20017;-64
2021/01/31 07:47:07;;;;;;;4.57;2.33;;;14.30;35.90;;;;;;5054281;28;20037;-64
2021/01/31 07:50:10;;;;;;;4.55;1.90;;;14.30;35.90;;;;;;5054010;28;20021;-64
2021/01/31 07:52:49;;;;;;;4.38;2.15;;;14.30;35.90;;;;;;5054013;28;20016;-64
2021/01/31 07:55:42;;;;;;;4.15;1.92;;;14.30;36.00;;;;;;5053821;28;20025;-64
2021/01/31 07:58:20;;;;;;;3.15;1.77;;;14.30;35.90;;;;;;5053766;28;20473;-64
2021/01/31 08:00:48;;;;;;;4.78;2.22;;;14.30;36.10;;;;;;5052553;28;20036;-64
2021/01/31 08:03:36;;;;;;;4.47;2.00;;;14.40;36.00;;;;;;5053801;28;20125;-64
2021/01/31 08:06:06;;;;;;;4.20;1.95;;;14.30;36.00;;;;;;5053771;28;20060;-64
2021/01/31 08:08:48;;;;;;;5.50;2.15;;;14.30;35.90;;;;;;5053958;28;20507;-64
2021/01/31 08:11:16;;;;;;;4.85;2.33;;;14.30;35.80;;;;;;5053974;28;20064;-64
2021/01/31 08:13:45;;;;;;;3.83;2.00;;;14.30;36.00;;;;;;5053761;28;20029;-64
2021/01/31 08:16:47;;;;;;;3.67;1.98;;;14.30;35.90;;;;;;5053702;28;20489;-64
2021/01/31 08:19:18;;;;;;;3.60;1.88;;;14.30;35.80;;;;;;5053837;28;20025;-64
2021/01/31 08:21:56;;;;;;;4.20;2.20;;;14.30;35.90;;;;;;5053759;28;20056;-64
2021/01/31 08:24:59;;;;;;;4.55;2.08;;;14.30;35.90;;;;;;5052976;28;20136;-64
2021/01/31 08:27:42;;;;;;;4.70;2.10;;;14.30;35.90;;;;;;5053641;28;20039;-64
2021/01/31 08:30:29;;;;;;;5.80;2.00;;;14.40;35.80;;;;;;5053578;28;20477;-64
2021/01/31 08:32:57;;;;;;;3.55;1.90;;;14.40;35.80;;;;;;5053933;28;20053;-63
2021/01/31 08:35:24;;;;;;;4.18;1.90;;;14.40;35.90;;;;;;5054412;28;20029;-64
2021/01/31 08:37:52;;;;;;;4.40;2.00;;;14.40;35.80;;;;;;5057929;28;20029;-65
2021/01/31 08:40:20;;;;;;;4.97;1.98;;;14.40;35.90;;;;;;5061161;28;20033;-64
2021/01/31 08:42:52;;;;;;;6.20;1.67;;;14.40;35.80;;;;;;5061037;28;20025;-64
2021/01/31 08:45:18;;;;;;;3.90;2.13;;;14.40;35.70;;;;;;5060710;28;20031;-64
2021/01/31 08:47:43;;;;;;;4.15;1.70;;;14.40;35.90;;;;;;5064575;28;20107;-63
2021/01/31 08:50:09;;;;;;;3.90;1.92;;;14.40;35.80;;;;;;5062691;28;20104;-64
2021/01/31 08:52:36;;;;;;;4.78;2.10;;;14.40;35.90;;;;;;5062365;28;20036;-64
2021/01/31 08:55:05;;;;;;;5.68;2.00;;;14.40;35.80;;;;;;5059768;28;20025;-63
2021/01/31 08:57:31;;;;;;;3.42;1.83;;;14.40;35.80;;;;;;5053087;28;20037;-63
2021/01/31 09:00:12;;;;;;;4.10;1.90;;;14.40;35.80;;;;;;5051739;28;20148;-63
2021/01/31 09:02:43;;;;;;;4.63;2.05;;;14.40;35.80;;;;;;5053165;28;20025;-63
2021/01/31 09:05:15;;;;;;;4.45;2.17;;;14.40;35.80;;;;;;5053310;28;20025;-63
2021/01/31 09:07:47;;;;;;;3.33;1.73;;;14.40;35.80;;;;;;5053296;28;20021;-64
2021/01/31 09:10:24;;;;;;;3.53;1.75;;;14.50;35.80;;;;;;5052214;28;20078;-64
2021/01/31 09:12:49;;;;;;;4.43;2.30;;;14.40;35.70;;;;;;5053257;28;20021;-63
2021/01/31 09:15:24;;;;;;;5.10;2.03;;;14.50;35.80;;;;;;5052873;28;20404;-64
2021/01/31 09:17:50;;;;;;;3.97;1.90;;;14.40;35.80;;;;;;5052687;28;20388;-63
2021/01/31 09:20:25;;;;;;;4.32;1.95;;;14.50;35.70;;;;;;5052834;28;20037;-63
2021/01/31 09:22:53;;;;;;;3.95;1.80;;;14.50;35.60;;;;;;5052935;28;20036;-63
2021/01/31 09:25:21;;;;;;;4.43;2.00;;;14.50;35.70;;;;;;5052750;28;20487;-63
2021/01/31 09:28:01;;;;;;;4.35;1.73;;;14.50;35.80;;;;;;5052800;28;20033;-63
2021/01/31 09:30:29;;;;;;;4.63;1.95;;;14.50;35.70;;;;;;5054932;28;20102;-63
2021/01/31 09:33:13;;;;;;;3.15;1.70;;;14.50;35.60;;;;;;5053074;28;20048;-63
2021/01/31 09:35:39;;;;;;;4.23;1.77;;;14.50;35.80;;;;;;5053564;28;20064;-64
2021/01/31 09:38:20;;;;;;;4.05;2.10;;;14.50;35.80;;;;;;5056213;28;20067;-64
2021/01/31 09:40:47;;;;;;;3.00;1.65;;;14.50;35.80;;;;;;5055867;28;20473;-64
2021/01/31 09:43:20;;;;;;;5.50;1.92;;;14.50;35.80;;;;;;5056045;28;20033;-64
2021/01/31 09:45:53;;;;;;;4.10;2.03;;;14.50;35.70;;;;;;5055681;28;20055;-64
2021/01/31 09:48:22;;;;;;;3.60;1.63;;;14.50;35.60;;;;;;5055587;28;20481;-64
2021/01/31 09:50:53;;;;;;;4.03;2.13;;;14.50;35.80;;;;;;5056204;28;20021;-64
2021/01/31 09:53:37;;;;;;;3.40;1.80;;;14.50;35.90;;;;;;5056272;28;20029;-64
2021/01/31 09:56:31;;;;;;;4.90;2.13;;;14.50;35.90;;;;;;5056717;28;20043;-64
2021/01/31 09:58:56;;;;;;;4.15;2.20;;;14.60;35.90;;;;;;5060202;28;20055;-64
2021/01/31 10:01:25;;;;;;;4.72;2.03;;;14.60;35.80;;;;;;5057310;28;20021;-64
2021/01/31 10:04:01;;;;;;;3.72;1.98;;;14.60;35.90;;;;;;5056413;28;20505;-64
2021/01/31 10:06:31;;;;;;;4.18;2.00;;;14.60;36.00;;;;;;5056087;28;20047;-63
2021/01/31 10:09:00;;;;;;;4.40;2.03;;;14.60;35.80;;;;;;5055717;28;20021;-64
2021/01/31 10:11:38;;;;;;;3.95;1.77;;;14.70;35.80;;;;;;5055695;28;20440;-63
2021/01/31 10:14:06;;;;;;;4.55;1.90;;;14.70;36.00;;;;;;5055646;28;20064;-64
2021/01/31 10:16:34;;;;;;;5.15;1.90;;;14.70;36.00;;;;;;5055645;28;20068;-63
2021/01/31 10:19:11;;;;;;;5.05;1.95;;;14.70;35.90;;;;;;5055358;28;20400;-63
2021/01/31 10:21:44;;;;;;;3.60;1.65;;;14.70;36.00;;;;;;5055503;28;20119;-63
2021/01/31 10:24:26;;;;;;;3.80;2.15;;;14.70;36.00;;;;;;5055491;28;20025;-64
2021/01/31 10:27:09;;;;;;;4.07;2.13;;;14.80;35.90;;;;;;5055147;28;20049;-63
2021/01/31 10:29:35;;;;;;;4.93;2.30;;;14.80;35.80;;;;;;5055460;28;20074;-63
2021/01/31 10:32:21;;;;;;;4.60;2.15;;;14.80;35.90;;;;;;5055584;28;20028;-63
2021/01/31 10:34:47;;;;;;;4.93;2.15;;;14.80;35.80;;;;;;5055447;28;20052;-63
2021/01/31 10:37:17;;;;;;;4.68;2.00;;;14.80;35.90;;;;;;5055280;28;20500;-63
2021/01/31 10:39:43;;;;;;;3.63;2.00;;;14.80;35.90;;;;;;5054979;28;20060;-63
2021/01/31 10:42:09;;;;;;;3.25;1.73;;;14.80;35.90;;;;;;5054836;28;20059;-63
2021/01/31 10:44:35;;;;;;;4.22;1.80;;;14.80;35.80;;;;;;5055165;28;20425;-64
2021/01/31 10:47:00;;;;;;;4.45;2.30;;;14.90;35.70;;;;;;5053189;28;20029;-63
2021/01/31 10:49:26;;;;;;;5.28;2.08;;;14.80;35.80;;;;;;5055154;28;20029;-63
2021/01/31 10:51:52;;;;;;;4.47;1.85;;;14.80;35.80;;;;;;5055045;28;20055;-63
2021/01/31 10:54:19;;;;;;;5.22;2.33;;;14.80;35.90;;;;;;5055200;28;20036;-63
2021/01/31 10:56:45;;;;;;;5.00;2.42;;;14.80;35.80;;;;;;5054720;28;20503;-63
2021/01/31 10:59:11;;;;;;;4.30;2.08;;;14.80;35.80;;;;;;5055139;28;20032;-63
2021/01/31 11:01:37;;;;;;;3.83;1.73;;;14.80;35.90;;;;;;5055487;28;20021;-63
2021/01/31 11:04:02;;;;;;;5.00;2.38;;;14.80;35.80;;;;;;5055145;28;20035;-63
2021/01/31 11:06:28;;;;;;;3.53;2.08;;;14.80;35.90;;;;;;5054917;28;20028;-63
2021/01/31 11:08:54;;;;;;;5.90;2.10;;;14.80;35.90;;;;;;5055188;28;20086;-63
2021/01/31 11:11:21;;;;;;;3.83;2.00;;;14.70;35.70;;;;;;5053825;28;20025;-63
2021/01/31 11:13:48;;;;;;;4.50;2.20;;;14.80;35.70;;;;;;5055228;28;20175;-63
2021/01/31 11:16:14;;;;;;;4.40;2.08;;;14.80;35.60;;;;;;5054590;28;20522;-63
2021/01/31 11:18:39;;;;;;;4.88;2.30;;;14.70;35.60;;;;;;5054658;28;20017;-63
2021/01/31 11:21:05;;;;;;;5.28;2.30;;;14.70;35.60;;;;;;5054434;28;20380;-63
2021/01/31 11:23:31;;;;;;;5.20;2.45;;;14.70;35.50;;;;;;5054576;28;20025;-63
2021/01/31 11:25:56;;;;;;;3.85;2.05;;;14.70;35.60;;;;;;5054644;28;20033;-64
2021/01/31 11:28:22;;;;;;;2.70;1.63;;;14.70;35.70;;;;;;5054351;28;20457;-64
2021/01/31 11:30:48;;;;;;;3.88;1.88;;;14.70;35.90;;;;;;5054390;28;20040;-64
2021/01/31 11:33:14;;;;;;;5.57;2.30;;;14.70;35.90;;;;;;5054235;28;20021;-63
2021/01/31 11:35:40;;;;;;;4.30;2.42;;;14.60;35.80;;;;;;5052923;28;20056;-64
2021/01/31 11:38:06;;;;;;;4.47;2.15;;;14.60;35.80;;;;;;5054122;28;20021;-64
2021/01/31 11:40:32;;;;;;;3.22;1.67;;;14.70;36.00;;;;;;5054249;28;20035;-64
2021/01/31 11:42:58;;;;;;;3.83;1.77;;;14.60;35.90;;;;;;5054541;28;20041;-64
2021/01/31 11:45:25;;;;;;;4.30;2.00;;;14.60;35.90;;;;;;5052566;28;20036;-64
2021/01/31 11:47:52;;;;;;;4.32;2.05;;;14.60;35.90;;;;;;5053903;28;20094;-64
2021/01/31 11:50:18;;;;;;;5.10;2.00;;;14.70;35.60;;;;;;5053682;28;20025;-64
2021/01/31 11:52:44;;;;;;;5.35;2.75;;;14.60;35.90;;;;;;5053846;28;20082;-63
2021/01/31 11:55:10;;;;;;;4.60;2.40;;;14.70;35.80;;;;;;5054064;28;20082;-63
2021/01/31 11:57:36;;;;;;;4.78;2.00;;;14.60;36.00;;;;;;5053506;28;20044;-63
2021/01/31 12:00:05;;;;;;;5.15;2.35;;;14.70;35.90;;;;;;5053709;28;20476;-63
2021/01/31 12:02:30;;;;;;;5.47;2.58;;;14.70;35.90;;;;;;5054051;28;20029;-63
2021/01/31 12:04:56;;;;;;;5.15;2.42;;;14.70;36.00;;;;;;5054281;28;20028;-63
2021/01/31 12:07:21;;;;;;;4.13;1.98;;;14.70;36.00;;;;;;5054252;28;20481;-63
2021/01/31 12:09:47;;;;;;;4.53;2.15;;;14.60;36.00;;;;;;5054238;28;20033;-63
2021/01/31 12:12:13;;;;;;;3.85;1.90;;;14.60;35.90;;;;;;5054156;28;20024;-63
2021/01/31 12:14:41;;;;;;;4.90;2.30;;;14.60;35.90;;;;;;5055538;28;20416;-64
2021/01/31 12:17:07;;;;;;;4.05;2.08;;;14.60;35.90;;;;;;5055024;28;20033;-64
2021/01/31 12:19:33;;;;;;;4.18;2.05;;;14.60;35.90;;;;;;5052777;28;20045;-64
2021/01/31 12:21:58;;;;;;;4.53;1.77;;;14.60;35.80;;;;;;5054078;28;20069;-64
2021/01/31 12:24:24;;;;;;;3.58;2.05;;;14.60;35.90;;;;;;5054196;28;20044;-64
2021/01/31 12:26:52;;;;;;;4.75;2.28;;;14.60;35.80;;;;;;5054054;28;20033;-64
2021/01/31 12:29:18;;;;;;;6.53;2.38;;;14.60;35.80;;;;;;5053735;28;20028;-64
2021/01/31 12:31:43;;;;;;;4.50;2.13;;;14.60;35.90;;;;;;5053461;28;20369;-64
2021/01/31 12:34:09;;;;;;;5.40;2.67;;;14.60;35.90;;;;;;5053905;28;20096;-64
2021/01/31 12:36:36;;;;;;;5.30;2.40;;;14.60;36.00;;;;;;5053915;28;20041;-64
2021/01/31 12:39:03;;;;;;;4.53;2.40;;;14.60;35.90;;;;;;5054598;28;20028;-64
2021/01/31 12:41:29;;;;;;;3.83;2.03;;;14.60;36.00;;;;;;5054048;28;20028;-64
2021/01/31 12:43:54;;;;;;;4.68;2.20;;;14.60;35.90;;;;;;5053891;28;20483;-64
2021/01/31 12:46:20;;;;;;;4.30;2.20;;;14.60;35.90;;;;;;5053720;28;20029;-64
2021/01/31 12:48:46;;;;;;;4.90;2.47;;;14.60;35.90;;;;;;5053648;28;20036;-64
2021/01/31 12:51:11;;;;;;;4.50;2.35;;;14.60;36.00;;;;;;5053016;28;20083;-64
2021/01/31 12:53:37;;;;;;;5.03;2.47;;;14.60;36.00;;;;;;5053218;28;20029;-64
2021/01/31 12:56:03;;;;;;;4.63;2.47;;;14.50;36.00;;;;;;5053351;28;20457;-64
2021/01/31 12:58:28;;;;;;;4.82;2.50;;;14.50;35.90;;;;;;5053413;28;20043;-64
2021/01/31 13:00:54;;;;;;;4.88;2.42;;;14.50;36.00;;;;;;5053392;28;20032;-64
2021/01/31 13:03:19;;;;;;;5.30;2.25;;;14.50;36.00;;;;;;5053543;28;20033;-64
2021/01/31 13:05:45;;;;;;;5.20;2.60;;;14.50;36.00;;;;;;5052228;28;20029;-64
2021/01/31 13:08:11;;;;;;;4.97;2.38;;;14.50;36.00;;;;;;5053250;28;20025;-64
2021/01/31 13:10:36;;;;;;;4.70;2.35;;;14.50;35.90;;;;;;5055924;28;20025;-64
2021/01/31 13:13:02;;;;;;;4.88;2.42;;;14.50;35.90;;;;;;5057069;28;20429;-64